Time;durP1;ratioP1;P1;durP2;ratioP2;P2;SDS_P1;SDS_P2;PMS_P1;PMS_P2;Temp;Humidity;BMP_temperature;BMP_pressure;BME280_temperature;BME280_humidity;BME280_pressure;Samples;Min_cycle;Max_cycle;Signal;HPM_P1;HPM_P2
2022/06/05 00:06:33;;;;;;;;;;;21.10;41.80;;;;;;21174662;28;19924;-69
2022/06/05 00:16:34;;;;;;;;;;;21.10;42.00;;;;;;21173721;28;19923;-69
2022/06/05 00:26:59;;;;;;;;;;;21.00;42.70;;;;;;21173527;28;19923;-68
2022/06/05 00:37:10;;;;;;;;;;;20.80;42.90;;;;;;21177892;28;19942;-70
2022/06/05 00:47:13;;;;;;;;;;;20.70;43.40;;;;;;21175491;28;19924;-68
2022/06/05 00:57:15;;;;;;;;;;;20.70;43.40;;;;;;21170658;28;19924;-64
2022/06/05 01:07:18;;;;;;;;;;;20.50;43.50;;;;;;21172148;28;19946;-62
2022/06/05 01:17:22;;;;;;;;;;;20.50;44.10;;;;;;21167718;28;19924;-61
2022/06/05 01:27:31;;;;;;;;;;;20.50;44.10;;;;;;21165910;28;19924;-60
2022/06/05 01:37:42;;;;;;;;;;;20.40;44.20;;;;;;21165601;28;19924;-62
2022/06/05 01:47:55;;;;;;;;;;;20.30;44.40;;;;;;21164660;28;19931;-62
2022/06/05 01:58:14;;;;;;;;;;;20.40;44.50;;;;;;21165213;28;19924;-67
2022/06/05 02:08:31;;;;;;;;;;;20.80;44.00;;;;;;21163952;28;19923;-66
2022/06/05 02:18:41;;;;;;;;;;;20.50;44.80;;;;;;21164250;28;19923;-61
2022/06/05 02:28:47;;;;;;;;;;;20.40;44.70;;;;;;21164236;28;19924;-66
2022/06/05 02:38:55;;;;;;;;;;;20.70;44.60;;;;;;21162182;28;19924;-61
2022/06/05 02:49:08;;;;;;;;;;;20.20;45.30;;;;;;21167874;28;19935;-61
2022/06/05 02:59:12;;;;;;;;;;;20.00;45.90;;;;;;21177583;28;20027;-62
2022/06/05 03:09:17;;;;;;;;;;;20.00;46.00;;;;;;21178028;28;19931;-67
2022/06/05 03:19:20;;;;;;;;;;;20.00;46.20;;;;;;21176611;28;20291;-62
2022/06/05 03:29:27;;;;;;;;;;;19.80;46.50;;;;;;21175415;28;19931;-60
2022/06/05 03:39:34;;;;;;;;;;;19.80;46.70;;;;;;21174259;28;19930;-61
2022/06/05 03:49:39;;;;;;;;;;;20.10;46.20;;;;;;21174430;28;19962;-60
2022/06/05 03:59:43;;;;;;;;;;;20.10;46.20;;;;;;21172787;28;19924;-63
2022/06/05 04:09:48;;;;;;;;;;;20.50;45.10;;;;;;21173066;28;19924;-67
2022/06/05 04:19:51;;;;;;;;;;;;;;;;;;21171703;28;19935;-67
2022/06/05 04:29:55;;;;;;;;;;;;;;;;;;21170768;28;20422;-67
2022/06/05 04:39:59;;;;;;;;;;;20.40;45.30;;;;;;21169420;28;19924;-61
2022/06/05 04:50:08;;;;;;;;;;;19.40;47.40;;;;;;21168242;28;19924;-63
2022/06/05 05:00:11;;;;;;;;;;;19.10;48.20;;;;;;21168201;28;19924;-61
2022/06/05 05:10:14;;;;;;;;;;;18.70;49.10;;;;;;21166463;28;20135;-62
2022/06/05 05:20:16;;;;;;;;;;;18.60;49.30;;;;;;21166635;28;20410;-62
2022/06/05 05:30:19;;;;;;;;;;;18.70;49.50;;;;;;21165477;28;19923;-61
2022/06/05 05:50:46;;;;;;;;;;;19.00;49.40;;;;;;21164070;28;19931;-66
2022/06/05 06:00:47;;;;;;;;;;;19.00;49.40;;;;;;21163456;28;19923;-67
2022/06/05 06:10:49;;;;;;;;;;;19.20;49.80;;;;;;21163482;28;20428;-68
2022/06/05 06:20:52;;;;;;;;;;;19.30;49.30;;;;;;21164229;27;20413;-65
2022/06/05 06:30:53;;;;;;;;;;;19.40;49.40;;;;;;21179752;28;19931;-63
2022/06/05 06:41:02;;;;;;;;;;;19.40;49.60;;;;;;21180308;28;19923;-68
2022/06/05 06:51:05;;;;;;;;;;;19.60;50.00;;;;;;21178368;28;20341;-69
2022/06/05 07:01:06;;;;;;;;;;;20.80;48.20;;;;;;21177054;28;19924;-68
2022/06/05 07:11:09;;;;;;;;;;;21.60;46.10;;;;;;21175966;28;19924;-67
2022/06/05 07:21:12;;;;;;;;;;;22.20;45.20;;;;;;21171849;28;20454;-65
2022/06/05 07:31:14;;;;;;;;;;;22.40;44.70;;;;;;21171569;28;19963;-67
2022/06/05 07:41:18;;;;;;;;;;;22.60;44.50;;;;;;21170168;28;20391;-70
2022/06/05 08:01:41;;;;;;;;;;;24.60;41.20;;;;;;21168268;28;19934;-68
2022/06/05 08:11:45;;;;;;;;;;;24.40;41.40;;;;;;21167837;28;19923;-70
2022/06/05 08:21:47;;;;;;;;;;;24.50;41.00;;;;;;21113981;27;1892790;-66
2022/06/05 08:31:49;;;;;;;;;;;24.90;41.50;;;;;;21254299;27;19985;-69
2022/06/05 08:41:57;;;;;;;;;;;25.60;39.50;;;;;;21252894;27;19927;-64
2022/06/05 08:52:00;;;;;;;;;;;;;;;;;;21250477;27;19984;-62
2022/06/05 09:02:15;;;;;;;;;;;26.80;37.10;;;;;;21251493;27;19933;-78
2022/06/05 09:12:24;;;;;;;;;;;26.40;38.20;;;;;;21250864;27;19927;-72
2022/06/05 09:22:28;;;;;;;;;;;26.50;37.50;;;;;;21249412;27;19969;-75
2022/06/05 09:32:49;;;;;;;;;;;26.40;36.20;;;;;;21249724;27;19962;-75
2022/06/05 09:42:56;;;;;;;;;;;26.50;36.80;;;;;;21249078;27;20030;-72
2022/06/05 09:52:59;;;;;;;;;;;;;;;;;;21247360;27;19929;-68
2022/06/05 10:03:03;;;;;;;;;;;;;;;;;;21248101;27;20367;-69
2022/06/05 10:13:05;;;;;;;;;;;;;;;;;;21247048;27;19946;-66
2022/06/05 10:23:15;;;;;;;;;;;27.90;32.10;;;;;;21246661;28;19923;-66
2022/06/05 10:33:24;;;;;;;;;;;27.20;33.00;;;;;;21249090;28;19932;-65
2022/06/05 10:43:27;;;;;;;;;;;26.90;33.60;;;;;;21248238;28;19984;-66
2022/06/05 10:53:38;;;;;;;;;;;27.20;33.40;;;;;;21257076;28;19945;-69
2022/06/05 11:03:56;;;;;;;;;;;26.90;32.60;;;;;;21295680;28;19970;-64
2022/06/05 11:14:06;;;;;;;;;;;27.10;32.70;;;;;;21287139;27;19923;-67
2022/06/05 11:24:24;;;;;;;;;;;27.10;32.20;;;;;;21266108;27;19927;-69
2022/06/05 11:34:26;;;;;;;;;;;27.00;32.30;;;;;;21260557;27;20035;-69
2022/06/05 11:44:36;;;;;;;;;;;27.20;30.40;;;;;;21259587;27;19970;-71
2022/06/05 11:54:50;;;;;;;;;;;27.10;31.30;;;;;;21240043;27;19923;-70
2022/06/05 12:05:04;;;;;;;;;;;28.30;30.20;;;;;;21257640;27;19976;-71
2022/06/05 12:15:27;;;;;;;;;;;27.60;30.90;;;;;;21238694;27;19927;-65
2022/06/05 12:25:47;;;;;;;;;;;27.60;30.30;;;;;;21256732;27;19923;-69
2022/06/05 12:35:53;;;;;;;;;;;27.80;29.80;;;;;;21253259;27;19930;-68
2022/06/05 12:46:13;;;;;;;;;;;27.80;29.80;;;;;;21253904;27;20335;-65
2022/06/05 12:56:22;;;;;;;;;;;28.20;29.40;;;;;;21252554;27;19931;-69
2022/06/05 13:06:45;;;;;;;;;;;28.10;29.90;;;;;;21252985;27;19931;-69
2022/06/05 13:16:50;;;;;;;;;;;28.30;28.80;;;;;;21256436;27;20325;-70
2022/06/05 13:27:11;;;;;;;;;;;28.40;27.40;;;;;;21249497;27;20019;-72
2022/06/05 13:37:13;;;;;;;;;;;28.40;28.10;;;;;;21247869;27;19928;-69
2022/06/05 13:47:24;;;;;;;;;;;28.00;29.40;;;;;;21247971;27;19924;-70
2022/06/05 13:57:44;;;;;;;;;;;28.60;28.10;;;;;;21247088;27;20375;-69
2022/06/05 14:07:46;;;;;;;;;;;28.90;28.10;;;;;;21246808;27;19931;-69
2022/06/05 14:17:48;;;;;;;;;;;29.00;27.60;;;;;;21247460;28;19927;-69
2022/06/05 14:28:00;;;;;;;;;;;29.10;27.50;;;;;;21245801;28;20041;-66
2022/06/05 14:38:02;;;;;;;;;;;29.20;27.60;;;;;;21246171;28;19923;-65
2022/06/05 14:48:07;;;;;;;;;;;28.90;27.70;;;;;;21258470;27;19971;-67
2022/06/05 14:58:09;;;;;;;;;;;29.30;27.00;;;;;;21262552;27;19934;-71
2022/06/05 15:08:29;;;;;;;;;;;29.40;26.20;;;;;;21262163;27;19923;-72
2022/06/05 15:18:32;;;;;;;;;;;29.40;26.30;;;;;;21228443;27;19924;-69
2022/06/05 15:28:51;;;;;;;;;;;29.20;26.60;;;;;;21178579;28;19928;-70
2022/06/05 15:39:12;;;;;;;;;;;28.90;26.60;;;;;;21181652;28;19997;-66
2022/06/05 15:49:22;;;;;;;;;;;29.40;26.60;;;;;;21175693;28;19981;-67
2022/06/05 15:59:51;;;;;;;;;;;29.20;27.00;;;;;;21173827;28;19931;-69
2022/06/05 16:09:56;;;;;;;;;;;29.20;26.20;;;;;;21172369;28;20426;-68
2022/06/05 16:20:13;;;;;;;;;;;29.20;26.40;;;;;;21171382;28;20307;-67
2022/06/05 16:30:28;;;;;;;;;;;29.30;25.00;;;;;;21170156;28;19924;-66
2022/06/05 16:40:31;;;;;;;;;;;29.30;25.80;;;;;;21168813;28;20010;-71
2022/06/05 16:50:52;;;;;;;;;;;29.30;25.70;;;;;;21168229;28;20383;-73
2022/06/05 17:01:03;;;;;;;;;;;29.30;25.30;;;;;;21152953;28;19945;-68
2022/06/05 17:11:24;;;;;;;;;;;29.20;25.50;;;;;;21167688;28;20011;-71
2022/06/05 17:21:29;;;;;;;;;;;29.20;24.70;;;;;;21165688;28;19977;-71
2022/06/05 17:31:47;;;;;;;;;;;29.10;25.60;;;;;;21164772;28;19924;-71
2022/06/05 17:42:09;;;;;;;;;;;29.00;25.70;;;;;;21165257;28;20364;-70
2022/06/05 17:52:16;;;;;;;;;;;28.90;25.90;;;;;;21162708;28;19924;-70
2022/06/05 18:02:19;;;;;;;;;;;28.90;26.40;;;;;;21162831;28;19923;-67
2022/06/05 18:12:22;;;;;;;;;;;28.70;26.70;;;;;;21164338;28;19976;-72
2022/06/05 18:22:24;;;;;;;;;;;28.70;27.00;;;;;;21174931;28;20332;-71
2022/06/05 18:32:38;;;;;;;;;;;28.50;27.00;;;;;;21179159;28;19923;-71
2022/06/05 18:42:40;;;;;;;;;;;28.30;27.10;;;;;;21178383;28;19924;-72
2022/06/05 18:52:42;;;;;;;;;;;28.20;27.00;;;;;;21177249;28;19923;-69
2022/06/05 19:02:49;;;;;;;;;;;28.10;27.30;;;;;;21176929;28;20442;-71
2022/06/05 19:13:03;;;;;;;;;;;27.90;28.30;;;;;;21175488;28;20018;-70
2022/06/05 19:23:25;;;;;;;;;;;27.70;28.60;;;;;;21174414;28;19923;-71
2022/06/05 19:33:31;;;;;;;;;;;27.50;29.00;;;;;;21159941;28;19924;-71
2022/06/05 19:43:33;;;;;;;;;;;27.30;29.40;;;;;;21175129;28;20011;-72
2022/06/05 19:53:46;;;;;;;;;;;27.00;30.10;;;;;;21173263;28;19935;-72
2022/06/05 20:03:59;;;;;;;;;;;26.80;30.40;;;;;;21176519;28;19988;-71
2022/06/05 20:14:00;;;;;;;;;;;;;;;;;;21175843;28;19924;-70
2022/06/05 20:24:05;;;;;;;;;;;26.40;31.30;;;;;;21170958;28;19931;-69
2022/06/05 20:34:21;;;;;;;;;;;26.20;31.60;;;;;;21171136;28;19977;-69
2022/06/05 20:44:24;;;;;;;;;;;26.00;32.20;;;;;;21168702;28;19935;-70
2022/06/05 20:54:26;;;;;;;;;;;25.90;32.60;;;;;;21169930;28;20384;-71
2022/06/05 21:25:19;;;;;;;;;;;25.60;33.80;;;;;;21167958;28;20027;-68
2022/06/05 21:35:30;;;;;;;;;;;25.40;34.90;;;;;;21167006;28;20351;-69
2022/06/05 21:45:32;;;;;;;;;;;25.30;35.10;;;;;;21171699;28;19928;-69
2022/06/05 21:55:37;;;;;;;;;;;25.20;35.80;;;;;;21167621;28;19925;-70
2022/06/05 22:05:40;;;;;;;;;;;25.00;35.90;;;;;;21151333;28;19923;-68
2022/06/05 22:15:42;;;;;;;;;;;24.90;36.40;;;;;;21164946;28;20295;-70
2022/06/05 22:25:45;;;;;;;;;;;24.70;36.60;;;;;;21163511;28;19971;-69
2022/06/05 22:35:46;;;;;;;;;;;24.70;36.60;;;;;;21163423;28;20447;-69
2022/06/05 22:45:48;;;;;;;;;;;24.60;36.90;;;;;;21163068;28;19923;-70
2022/06/05 22:55:50;;;;;;;;;;;24.60;36.90;;;;;;21164720;28;19924;-69
2022/06/05 23:05:53;;;;;;;;;;;24.60;37.10;;;;;;21168361;28;20371;-67
2022/06/05 23:15:55;;;;;;;;;;;24.40;37.30;;;;;;21176892;28;19986;-68
2022/06/05 23:25:56;;;;;;;;;;;24.20;38.10;;;;;;21176629;28;19966;-67
2022/06/05 23:36:02;;;;;;;;;;;24.10;38.30;;;;;;21175092;28;19934;-69
2022/06/05 23:46:08;;;;;;;;;;;23.90;38.50;;;;;;21174894;28;20413;-65
2022/06/05 23:56:12;;;;;;;;;;;23.70;39.30;;;;;;21173351;28;20045;-65
